HOURLY OBS INDEX

038

Channel Country

BIRDSVILLE AIRPORT

Site: 038026
Alt: 46.6m
0.0km WNW of BIRDSVILLE


  Time     Wind        Temp  DP   Baro     Rain since   Rain past  Vis(m), Cloud(base in m), Weather
  local        km/h                         9am  last   hr   10m    
Wed 16:00    S 22/ 28  19.4  2.7  1018.2    0.0   0.0   0.0   0.0   ----- 
Wed 16:30    S 24/ 32  20.3  1.7  1018.3    0.0   0.0   0.0   0.0   ----- 
Wed 17:00    S 28/ 33  20.7  1.6  1018.1    0.0   0.0   0.0   0.0   ----- 
Wed 17:30    S 24/ 32  20.6  1.5  1018.2    0.0   0.0   0.0   0.0   ----- 
Wed 18:00  SSW 24/ 35  20.6  1.5  1018.2    0.0   0.0   0.0   0.0   ----- 
Wed 18:30  SSW 20/ 28  19.8  0.8  1018.8    0.0   0.0   0.0   0.0   ----- 
Wed 19:00  SSW 17/ 20  18.9  0.5  1019.2    0.0   0.0   0.0   0.0   ----- 
Wed 19:30    S 15/ 17  18.3  0.4  1019.5    0.0   0.0   0.0   0.0   ----- 
Wed 20:00    S 15/ 17  17.7  0.4  1019.7    0.0   0.0   0.0   0.0   ----- 
Wed 20:30    S 11/ 13  16.8  0.0  1020.0    0.0   0.0   0.0   0.0   ----- 
Wed 21:00   SW 13/ 17  15.4 -1.2  1020.4    0.0   0.0   0.0   0.0   ----- 

WINDORAH AIRPORT

Site: 038076
Alt: 132.2m
2km NNE of WINDORAH


  Time     Wind        Temp  DP   Baro     Rain since   Rain past  Vis(m), Cloud(base in m), Weather
  local        km/h                         9am  last   hr   10m    
Wed 16:00  SSW 20/ 30  30.2 -4.8  1013.2    0.0   0.0   0.0   0.0   10000 
Wed 16:30   SW 24/ 33  29.4 -5.4  1013.4    0.0   0.0   0.0   0.0   10000 
Wed 17:00  SSW 28/ 41  28.5 -3.6  1013.7    0.0   0.0   0.0   0.0   10000 
Wed 17:30  SSW 35/ 45  25.1 -0.9  1014.6    0.0   0.0   0.0   0.0   10000 
Wed 18:00  SSW 33/ 41  23.7 -1.3  1015.2    0.0   0.0   0.0   0.0   10000 
Wed 18:30  SSW 33/ 41  22.7 -0.7  1015.6    0.0   0.0   0.0   0.0   10000 
Wed 19:00  SSW 32/ 43  21.7 -0.9  1016.1    0.0   0.0   0.0   0.0   10000 
Wed 19:30  SSW 28/ 39  21.1 -2.0  1016.4    0.0   0.0   0.0   0.0   10000 
Wed 20:00  SSW 22/ 32  20.8 -2.3  1017.2    0.0   0.0   0.0   0.0   10000 
Wed 20:30  SSW 22/ 28  20.6 -2.5  1017.8    0.0   0.0   0.0   0.0   10000 
Wed 21:00  SSW 19/ 22  20.3 -2.7  1017.9    0.0   0.0   0.0   0.0   10000